sensor_id;sensor_type;location;lat;lon;timestamp;P1;durP1;ratioP1;P2;durP2;ratioP2
44248;SDS011;29923;48.718;9.272;2023-08-30T00:00:03;18.52;;;14.35;;
44248;SDS011;29923;48.718;9.272;2023-08-30T00:02:29;13.90;;;12.45;;
44248;SDS011;29923;48.718;9.272;2023-08-30T00:05:01;12.50;;;9.88;;
44248;SDS011;29923;48.718;9.272;2023-08-30T00:07:28;13.68;;;11.95;;
44248;SDS011;29923;48.718;9.272;2023-08-30T00:09:53;31.48;;;21.42;;
44248;SDS011;29923;48.718;9.272;2023-08-30T00:12:18;18.13;;;13.55;;
44248;SDS011;29923;48.718;9.272;2023-08-30T00:14:44;15.77;;;13.15;;
44248;SDS011;29923;48.718;9.272;2023-08-30T00:17:09;12.90;;;11.63;;
44248;SDS011;29923;48.718;9.272;2023-08-30T00:19:34;17.38;;;15.18;;
44248;SDS011;29923;48.718;9.272;2023-08-30T00:22:00;14.73;;;11.35;;
44248;SDS011;29923;48.718;9.272;2023-08-30T00:24:25;14.88;;;13.27;;
44248;SDS011;29923;48.718;9.272;2023-08-30T00:26:50;26.33;;;19.65;;
44248;SDS011;29923;48.718;9.272;2023-08-30T00:29:16;15.90;;;11.82;;
44248;SDS011;29923;48.718;9.272;2023-08-30T00:31:41;16.38;;;13.70;;
44248;SDS011;29923;48.718;9.272;2023-08-30T00:34:06;17.13;;;14.07;;
44248;SDS011;29923;48.718;9.272;2023-08-30T00:36:32;14.98;;;11.75;;
44248;SDS011;29923;48.718;9.272;2023-08-30T00:38:57;16.98;;;12.35;;
44248;SDS011;29923;48.718;9.272;2023-08-30T00:41:22;13.05;;;11.27;;
44248;SDS011;29923;48.718;9.272;2023-08-30T00:43:48;13.90;;;11.70;;
44248;SDS011;29923;48.718;9.272;2023-08-30T00:46:13;12.40;;;11.20;;
44248;SDS011;29923;48.718;9.272;2023-08-30T00:48:39;33.05;;;22.17;;
44248;SDS011;29923;48.718;9.272;2023-08-30T00:51:04;29.33;;;19.65;;
44248;SDS011;29923;48.718;9.272;2023-08-30T00:53:30;32.00;;;20.95;;
44248;SDS011;29923;48.718;9.272;2023-08-30T00:55:55;26.38;;;20.17;;
44248;SDS011;29923;48.718;9.272;2023-08-30T00:58:21;33.60;;;21.92;;
44248;SDS011;29923;48.718;9.272;2023-08-30T01:00:46;42.08;;;26.50;;
44248;SDS011;29923;48.718;9.272;2023-08-30T01:03:12;12.52;;;11.23;;
44248;SDS011;29923;48.718;9.272;2023-08-30T01:05:38;21.27;;;15.30;;
44248;SDS011;29923;48.718;9.272;2023-08-30T01:08:03;32.88;;;22.10;;
44248;SDS011;29923;48.718;9.272;2023-08-30T01:11:03;19.60;;;15.45;;
44248;SDS011;29923;48.718;9.272;2023-08-30T01:16:41;16.20;;;9.98;;
44248;SDS011;29923;48.718;9.272;2023-08-30T01:19:26;13.35;;;12.00;;
44248;SDS011;29923;48.718;9.272;2023-08-30T01:22:03;12.15;;;10.32;;
44248;SDS011;29923;48.718;9.272;2023-08-30T01:24:40;9.63;;;8.73;;
44248;SDS011;29923;48.718;9.272;2023-08-30T01:27:22;20.95;;;15.20;;
44248;SDS011;29923;48.718;9.272;2023-08-30T01:29:49;30.48;;;18.50;;
44248;SDS011;29923;48.718;9.272;2023-08-30T01:32:14;21.98;;;18.48;;
44248;SDS011;29923;48.718;9.272;2023-08-30T01:34:40;23.83;;;18.85;;
44248;SDS011;29923;48.718;9.272;2023-08-30T01:37:07;21.45;;;15.90;;
44248;SDS011;29923;48.718;9.272;2023-08-30T01:39:33;47.80;;;27.52;;
44248;SDS011;29923;48.718;9.272;2023-08-30T01:42:00;36.15;;;24.00;;
44248;SDS011;29923;48.718;9.272;2023-08-30T01:44:29;18.98;;;13.63;;
44248;SDS011;29923;48.718;9.272;2023-08-30T01:46:55;18.00;;;15.88;;
44248;SDS011;29923;48.718;9.272;2023-08-30T01:49:22;16.58;;;13.85;;
44248;SDS011;29923;48.718;9.272;2023-08-30T01:51:49;13.90;;;10.82;;
44248;SDS011;29923;48.718;9.272;2023-08-30T01:54:16;15.50;;;11.73;;
44248;SDS011;29923;48.718;9.272;2023-08-30T01:56:43;30.55;;;22.25;;
44248;SDS011;29923;48.718;9.272;2023-08-30T01:59:08;38.95;;;25.33;;
44248;SDS011;29923;48.718;9.272;2023-08-30T02:01:34;41.95;;;25.10;;
44248;SDS011;29923;48.718;9.272;2023-08-30T02:03:59;16.25;;;11.00;;
44248;SDS011;29923;48.718;9.272;2023-08-30T02:06:26;24.25;;;16.95;;
44248;SDS011;29923;48.718;9.272;2023-08-30T02:09:04;13.95;;;12.38;;
44248;SDS011;29923;48.718;9.272;2023-08-30T02:11:49;12.20;;;10.35;;
44248;SDS011;29923;48.718;9.272;2023-08-30T02:14:16;20.75;;;13.55;;
44248;SDS011;29923;48.718;9.272;2023-08-30T02:16:43;18.42;;;13.00;;
44248;SDS011;29923;48.718;9.272;2023-08-30T02:19:10;16.83;;;12.57;;
44248;SDS011;29923;48.718;9.272;2023-08-30T02:21:36;19.50;;;11.38;;
44248;SDS011;29923;48.718;9.272;2023-08-30T02:24:02;16.60;;;10.85;;
44248;SDS011;29923;48.718;9.272;2023-08-30T02:26:28;11.68;;;9.80;;
44248;SDS011;29923;48.718;9.272;2023-08-30T02:28:53;10.07;;;9.05;;
44248;SDS011;29923;48.718;9.272;2023-08-30T02:31:18;11.77;;;10.57;;
44248;SDS011;29923;48.718;9.272;2023-08-30T02:33:44;13.10;;;11.65;;
44248;SDS011;29923;48.718;9.272;2023-08-30T02:36:09;13.20;;;11.23;;
44248;SDS011;29923;48.718;9.272;2023-08-30T02:38:35;11.00;;;10.00;;
44248;SDS011;29923;48.718;9.272;2023-08-30T02:41:01;19.88;;;12.57;;
44248;SDS011;29923;48.718;9.272;2023-08-30T02:43:26;17.75;;;10.52;;
44248;SDS011;29923;48.718;9.272;2023-08-30T02:45:51;14.45;;;11.95;;
44248;SDS011;29923;48.718;9.272;2023-08-30T02:48:17;16.52;;;9.52;;
44248;SDS011;29923;48.718;9.272;2023-08-30T02:50:42;18.25;;;11.55;;
44248;SDS011;29923;48.718;9.272;2023-08-30T02:53:08;16.63;;;11.35;;
44248;SDS011;29923;48.718;9.272;2023-08-30T02:55:33;20.05;;;13.32;;
44248;SDS011;29923;48.718;9.272;2023-08-30T02:57:59;12.85;;;11.43;;
44248;SDS011;29923;48.718;9.272;2023-08-30T03:00:25;13.82;;;12.43;;
44248;SDS011;29923;48.718;9.272;2023-08-30T03:02:50;27.83;;;17.67;;
44248;SDS011;29923;48.718;9.272;2023-08-30T03:05:15;14.70;;;12.90;;
44248;SDS011;29923;48.718;9.272;2023-08-30T03:07:41;14.25;;;12.18;;
44248;SDS011;29923;48.718;9.272;2023-08-30T03:10:06;31.77;;;21.88;;
44248;SDS011;29923;48.718;9.272;2023-08-30T03:12:32;11.50;;;10.43;;
44248;SDS011;29923;48.718;9.272;2023-08-30T03:14:58;26.77;;;19.38;;
44248;SDS011;29923;48.718;9.272;2023-08-30T03:17:23;29.98;;;19.65;;
44248;SDS011;29923;48.718;9.272;2023-08-30T03:19:51;17.20;;;13.05;;
44248;SDS011;29923;48.718;9.272;2023-08-30T03:22:18;22.10;;;14.15;;
44248;SDS011;29923;48.718;9.272;2023-08-30T03:24:43;16.08;;;12.18;;
44248;SDS011;29923;48.718;9.272;2023-08-30T03:27:08;14.30;;;12.77;;
44248;SDS011;29923;48.718;9.272;2023-08-30T03:29:33;38.15;;;22.33;;
44248;SDS011;29923;48.718;9.272;2023-08-30T03:31:59;14.18;;;12.75;;
44248;SDS011;29923;48.718;9.272;2023-08-30T03:34:24;48.28;;;27.35;;
44248;SDS011;29923;48.718;9.272;2023-08-30T03:36:49;36.42;;;22.92;;
44248;SDS011;29923;48.718;9.272;2023-08-30T03:39:19;13.93;;;12.43;;
44248;SDS011;29923;48.718;9.272;2023-08-30T03:41:48;17.63;;;13.35;;
44248;SDS011;29923;48.718;9.272;2023-08-30T03:44:14;12.30;;;11.05;;
44248;SDS011;29923;48.718;9.272;2023-08-30T03:46:39;17.08;;;13.77;;
44248;SDS011;29923;48.718;9.272;2023-08-30T03:49:04;15.25;;;11.05;;
44248;SDS011;29923;48.718;9.272;2023-08-30T03:51:30;13.15;;;10.68;;
44248;SDS011;29923;48.718;9.272;2023-08-30T03:53:55;31.75;;;20.45;;
44248;SDS011;29923;48.718;9.272;2023-08-30T03:56:23;26.73;;;17.65;;
44248;SDS011;29923;48.718;9.272;2023-08-30T03:58:49;19.65;;;15.35;;
44248;SDS011;29923;48.718;9.272;2023-08-30T04:01:14;15.10;;;13.50;;
44248;SDS011;29923;48.718;9.272;2023-08-30T04:03:39;31.00;;;18.10;;
44248;SDS011;29923;48.718;9.272;2023-08-30T04:06:05;18.00;;;13.98;;
44248;SDS011;29923;48.718;9.272;2023-08-30T04:08:30;24.90;;;17.73;;
44248;SDS011;29923;48.718;9.272;2023-08-30T04:10:56;25.67;;;19.48;;
44248;SDS011;29923;48.718;9.272;2023-08-30T04:13:21;15.93;;;14.25;;
44248;SDS011;29923;48.718;9.272;2023-08-30T04:15:47;33.45;;;20.45;;
44248;SDS011;29923;48.718;9.272;2023-08-30T04:18:12;45.08;;;26.58;;
44248;SDS011;29923;48.718;9.272;2023-08-30T04:20:42;17.10;;;14.05;;
44248;SDS011;29923;48.718;9.272;2023-08-30T04:23:09;12.23;;;10.93;;
44248;SDS011;29923;48.718;9.272;2023-08-30T04:25:34;34.72;;;21.58;;
44248;SDS011;29923;48.718;9.272;2023-08-30T04:27:59;19.17;;;14.82;;
44248;SDS011;29923;48.718;9.272;2023-08-30T04:30:25;19.27;;;11.57;;
44248;SDS011;29923;48.718;9.272;2023-08-30T04:32:50;41.75;;;22.30;;
44248;SDS011;29923;48.718;9.272;2023-08-30T04:35:16;25.15;;;18.42;;
44248;SDS011;29923;48.718;9.272;2023-08-30T04:37:41;35.28;;;21.60;;
44248;SDS011;29923;48.718;9.272;2023-08-30T04:40:07;19.67;;;16.00;;
44248;SDS011;29923;48.718;9.272;2023-08-30T04:42:34;17.90;;;11.63;;
44248;SDS011;29923;48.718;9.272;2023-08-30T04:44:59;20.42;;;14.32;;
44248;SDS011;29923;48.718;9.272;2023-08-30T04:47:25;14.70;;;13.13;;
44248;SDS011;29923;48.718;9.272;2023-08-30T04:49:52;21.35;;;15.32;;
44248;SDS011;29923;48.718;9.272;2023-08-30T04:52:18;43.95;;;24.02;;
44248;SDS011;29923;48.718;9.272;2023-08-30T04:54:43;16.42;;;14.63;;
44248;SDS011;29923;48.718;9.272;2023-08-30T04:57:10;17.90;;;14.98;;
44248;SDS011;29923;48.718;9.272;2023-08-30T04:59:39;52.30;;;29.05;;
44248;SDS011;29923;48.718;9.272;2023-08-30T05:02:04;21.30;;;14.30;;
44248;SDS011;29923;48.718;9.272;2023-08-30T05:04:30;34.63;;;22.90;;
44248;SDS011;29923;48.718;9.272;2023-08-30T05:06:56;31.67;;;21.35;;
44248;SDS011;29923;48.718;9.272;2023-08-30T05:09:21;17.85;;;15.10;;
44248;SDS011;29923;48.718;9.272;2023-08-30T05:11:49;13.27;;;11.88;;
44248;SDS011;29923;48.718;9.272;2023-08-30T05:14:15;24.92;;;18.80;;
44248;SDS011;29923;48.718;9.272;2023-08-30T05:16:40;30.42;;;17.88;;
44248;SDS011;29923;48.718;9.272;2023-08-30T05:19:06;28.65;;;19.67;;
44248;SDS011;29923;48.718;9.272;2023-08-30T05:21:31;19.35;;;13.05;;
44248;SDS011;29923;48.718;9.272;2023-08-30T05:23:56;14.68;;;12.55;;
44248;SDS011;29923;48.718;9.272;2023-08-30T05:26:22;16.45;;;13.35;;
44248;SDS011;29923;48.718;9.272;2023-08-30T05:28:47;14.75;;;13.07;;
44248;SDS011;29923;48.718;9.272;2023-08-30T05:31:12;12.52;;;10.13;;
44248;SDS011;29923;48.718;9.272;2023-08-30T05:33:38;16.17;;;10.65;;
44248;SDS011;29923;48.718;9.272;2023-08-30T05:36:03;11.75;;;10.52;;
44248;SDS011;29923;48.718;9.272;2023-08-30T05:38:28;18.75;;;12.55;;
44248;SDS011;29923;48.718;9.272;2023-08-30T05:40:54;11.65;;;9.88;;
44248;SDS011;29923;48.718;9.272;2023-08-30T05:43:19;23.90;;;11.90;;
44248;SDS011;29923;48.718;9.272;2023-08-30T05:45:44;12.73;;;11.38;;
44248;SDS011;29923;48.718;9.272;2023-08-30T05:48:09;13.02;;;11.00;;
44248;SDS011;29923;48.718;9.272;2023-08-30T05:50:35;19.00;;;10.38;;
44248;SDS011;29923;48.718;9.272;2023-08-30T05:53:00;12.52;;;9.50;;
44248;SDS011;29923;48.718;9.272;2023-08-30T05:55:26;14.90;;;8.68;;
44248;SDS011;29923;48.718;9.272;2023-08-30T05:57:51;9.15;;;8.30;;
44248;SDS011;29923;48.718;9.272;2023-08-30T06:00:17;9.60;;;8.60;;
44248;SDS011;29923;48.718;9.272;2023-08-30T06:02:42;11.20;;;9.60;;
44248;SDS011;29923;48.718;9.272;2023-08-30T06:05:08;12.45;;;9.10;;
44248;SDS011;29923;48.718;9.272;2023-08-30T06:07:34;11.30;;;8.88;;
44248;SDS011;29923;48.718;9.272;2023-08-30T06:09:59;13.75;;;8.40;;
44248;SDS011;29923;48.718;9.272;2023-08-30T06:12:25;10.05;;;9.05;;
44248;SDS011;29923;48.718;9.272;2023-08-30T06:14:51;12.13;;;8.80;;
44248;SDS011;29923;48.718;9.272;2023-08-30T06:17:17;9.90;;;8.48;;
44248;SDS011;29923;48.718;9.272;2023-08-30T06:19:44;11.07;;;8.75;;
44248;SDS011;29923;48.718;9.272;2023-08-30T06:22:09;14.27;;;11.40;;
44248;SDS011;29923;48.718;9.272;2023-08-30T06:24:35;13.10;;;10.02;;
44248;SDS011;29923;48.718;9.272;2023-08-30T06:27:03;13.18;;;10.43;;
44248;SDS011;29923;48.718;9.272;2023-08-30T06:29:29;12.57;;;10.50;;
44248;SDS011;29923;48.718;9.272;2023-08-30T06:31:55;13.13;;;11.32;;
44248;SDS011;29923;48.718;9.272;2023-08-30T06:34:20;12.27;;;10.65;;
44248;SDS011;29923;48.718;9.272;2023-08-30T06:36:45;12.18;;;9.73;;
44248;SDS011;29923;48.718;9.272;2023-08-30T06:39:11;19.38;;;11.38;;
44248;SDS011;29923;48.718;9.272;2023-08-30T06:41:36;19.45;;;10.85;;
44248;SDS011;29923;48.718;9.272;2023-08-30T06:44:01;16.27;;;11.65;;
44248;SDS011;29923;48.718;9.272;2023-08-30T06:46:27;15.93;;;10.38;;
44248;SDS011;29923;48.718;9.272;2023-08-30T06:48:52;13.68;;;10.45;;
44248;SDS011;29923;48.718;9.272;2023-08-30T06:51:17;14.57;;;10.40;;
44248;SDS011;29923;48.718;9.272;2023-08-30T06:53:43;12.30;;;10.63;;
44248;SDS011;29923;48.718;9.272;2023-08-30T06:56:08;16.70;;;11.13;;
44248;SDS011;29923;48.718;9.272;2023-08-30T06:58:33;11.82;;;10.38;;
44248;SDS011;29923;48.718;9.272;2023-08-30T07:00:59;14.38;;;11.50;;
44248;SDS011;29923;48.718;9.272;2023-08-30T07:03:25;17.67;;;10.38;;
44248;SDS011;29923;48.718;9.272;2023-08-30T07:05:51;14.20;;;11.00;;
44248;SDS011;29923;48.718;9.272;2023-08-30T07:08:16;12.88;;;9.88;;
44248;SDS011;29923;48.718;9.272;2023-08-30T07:10:42;13.40;;;10.85;;
44248;SDS011;29923;48.718;9.272;2023-08-30T07:13:07;10.73;;;9.38;;
44248;SDS011;29923;48.718;9.272;2023-08-30T07:15:36;15.65;;;10.50;;
44248;SDS011;29923;48.718;9.272;2023-08-30T07:18:03;13.10;;;10.88;;
44248;SDS011;29923;48.718;9.272;2023-08-30T07:20:28;14.93;;;9.75;;
44248;SDS011;29923;48.718;9.272;2023-08-30T07:22:54;14.48;;;9.60;;
44248;SDS011;29923;48.718;9.272;2023-08-30T07:25:19;10.70;;;9.60;;
44248;SDS011;29923;48.718;9.272;2023-08-30T07:27:45;10.65;;;9.57;;
44248;SDS011;29923;48.718;9.272;2023-08-30T07:30:10;13.60;;;9.02;;
44248;SDS011;29923;48.718;9.272;2023-08-30T07:32:36;10.73;;;8.40;;
44248;SDS011;29923;48.718;9.272;2023-08-30T07:35:03;8.70;;;7.65;;
44248;SDS011;29923;48.718;9.272;2023-08-30T07:37:29;8.73;;;7.68;;
44248;SDS011;29923;48.718;9.272;2023-08-30T07:39:54;8.65;;;7.18;;
44248;SDS011;29923;48.718;9.272;2023-08-30T07:42:19;8.10;;;6.50;;
44248;SDS011;29923;48.718;9.272;2023-08-30T07:44:45;9.07;;;6.60;;
44248;SDS011;29923;48.718;9.272;2023-08-30T07:47:10;6.55;;;5.72;;
44248;SDS011;29923;48.718;9.272;2023-08-30T07:49:36;7.80;;;6.78;;
44248;SDS011;29923;48.718;9.272;2023-08-30T07:52:01;10.07;;;6.97;;
44248;SDS011;29923;48.718;9.272;2023-08-30T07:54:26;9.10;;;7.55;;
44248;SDS011;29923;48.718;9.272;2023-08-30T07:56:52;9.45;;;5.80;;
44248;SDS011;29923;48.718;9.272;2023-08-30T07:59:18;6.88;;;6.18;;
44248;SDS011;29923;48.718;9.272;2023-08-30T08:01:43;10.73;;;6.32;;
44248;SDS011;29923;48.718;9.272;2023-08-30T08:04:08;8.30;;;7.00;;
44248;SDS011;29923;48.718;9.272;2023-08-30T08:06:34;7.53;;;6.82;;
44248;SDS011;29923;48.718;9.272;2023-08-30T08:08:59;9.85;;;7.20;;
44248;SDS011;29923;48.718;9.272;2023-08-30T08:11:25;8.68;;;5.90;;
44248;SDS011;29923;48.718;9.272;2023-08-30T08:13:50;10.93;;;6.90;;
44248;SDS011;29923;48.718;9.272;2023-08-30T08:16:16;10.55;;;6.90;;
44248;SDS011;29923;48.718;9.272;2023-08-30T08:18:41;12.10;;;6.47;;
44248;SDS011;29923;48.718;9.272;2023-08-30T08:21:06;6.78;;;6.05;;
44248;SDS011;29923;48.718;9.272;2023-08-30T08:23:32;6.03;;;5.38;;
44248;SDS011;29923;48.718;9.272;2023-08-30T08:25:58;10.20;;;6.55;;
44248;SDS011;29923;48.718;9.272;2023-08-30T08:28:24;6.20;;;5.55;;
44248;SDS011;29923;48.718;9.272;2023-08-30T08:30:49;8.80;;;6.43;;
44248;SDS011;29923;48.718;9.272;2023-08-30T08:33:16;9.85;;;5.20;;
44248;SDS011;29923;48.718;9.272;2023-08-30T08:35:42;6.03;;;5.40;;
44248;SDS011;29923;48.718;9.272;2023-08-30T08:38:08;5.43;;;4.93;;
44248;SDS011;29923;48.718;9.272;2023-08-30T08:40:37;6.57;;;4.80;;
44248;SDS011;29923;48.718;9.272;2023-08-30T08:43:04;12.50;;;5.38;;
44248;SDS011;29923;48.718;9.272;2023-08-30T08:45:31;5.32;;;4.47;;
44248;SDS011;29923;48.718;9.272;2023-08-30T08:48:00;8.80;;;4.90;;
44248;SDS011;29923;48.718;9.272;2023-08-30T08:50:27;11.77;;;5.28;;
44248;SDS011;29923;48.718;9.272;2023-08-30T08:52:53;5.38;;;4.60;;
44248;SDS011;29923;48.718;9.272;2023-08-30T08:55:18;4.97;;;4.45;;
44248;SDS011;29923;48.718;9.272;2023-08-30T08:57:44;5.63;;;4.03;;
44248;SDS011;29923;48.718;9.272;2023-08-30T09:00:09;6.63;;;4.13;;
44248;SDS011;29923;48.718;9.272;2023-08-30T09:02:35;5.35;;;4.35;;
44248;SDS011;29923;48.718;9.272;2023-08-30T09:05:01;4.80;;;4.30;;
44248;SDS011;29923;48.718;9.272;2023-08-30T09:07:27;5.38;;;4.55;;
44248;SDS011;29923;48.718;9.272;2023-08-30T09:09:53;5.38;;;4.18;;
44248;SDS011;29923;48.718;9.272;2023-08-30T09:12:19;7.75;;;4.65;;
44248;SDS011;29923;48.718;9.272;2023-08-30T09:14:53;6.00;;;4.15;;
44248;SDS011;29923;48.718;9.272;2023-08-30T09:17:20;5.28;;;3.97;;
44248;SDS011;29923;48.718;9.272;2023-08-30T09:19:46;4.72;;;3.63;;
44248;SDS011;29923;48.718;9.272;2023-08-30T09:22:11;4.32;;;3.80;;
44248;SDS011;29923;48.718;9.272;2023-08-30T09:24:37;6.93;;;4.07;;
44248;SDS011;29923;48.718;9.272;2023-08-30T09:27:04;9.38;;;4.55;;
44248;SDS011;29923;48.718;9.272;2023-08-30T09:29:29;6.28;;;4.15;;
44248;SDS011;29923;48.718;9.272;2023-08-30T09:31:55;6.53;;;3.90;;
44248;SDS011;29923;48.718;9.272;2023-08-30T09:34:23;4.65;;;3.80;;
44248;SDS011;29923;48.718;9.272;2023-08-30T09:36:50;4.22;;;3.55;;
44248;SDS011;29923;48.718;9.272;2023-08-30T09:39:16;4.78;;;3.35;;
44248;SDS011;29923;48.718;9.272;2023-08-30T09:41:42;5.43;;;3.55;;
44248;SDS011;29923;48.718;9.272;2023-08-30T09:44:11;4.47;;;3.88;;
44248;SDS011;29923;48.718;9.272;2023-08-30T09:46:45;5.13;;;3.13;;
44248;SDS011;29923;48.718;9.272;2023-08-30T09:49:21;5.63;;;4.15;;
44248;SDS011;29923;48.718;9.272;2023-08-30T09:51:50;8.48;;;3.33;;
44248;SDS011;29923;48.718;9.272;2023-08-30T09:54:20;3.38;;;3.03;;
44248;SDS011;29923;48.718;9.272;2023-08-30T09:56:51;5.68;;;3.20;;
44248;SDS011;29923;48.718;9.272;2023-08-30T09:59:22;7.60;;;3.20;;
44248;SDS011;29923;48.718;9.272;2023-08-30T10:01:48;7.00;;;2.90;;
44248;SDS011;29923;48.718;9.272;2023-08-30T10:04:14;5.40;;;3.20;;
44248;SDS011;29923;48.718;9.272;2023-08-30T10:06:40;5.07;;;2.67;;
44248;SDS011;29923;48.718;9.272;2023-08-30T10:09:06;6.75;;;3.13;;
44248;SDS011;29923;48.718;9.272;2023-08-30T10:11:37;4.35;;;2.90;;
44248;SDS011;29923;48.718;9.272;2023-08-30T10:14:03;3.78;;;2.60;;
44248;SDS011;29923;48.718;9.272;2023-08-30T10:16:30;2.65;;;2.45;;
44248;SDS011;29923;48.718;9.272;2023-08-30T10:19:01;3.33;;;2.97;;
44248;SDS011;29923;48.718;9.272;2023-08-30T10:21:29;4.05;;;2.58;;
44248;SDS011;29923;48.718;9.272;2023-08-30T10:23:55;8.63;;;2.60;;
44248;SDS011;29923;48.718;9.272;2023-08-30T10:26:22;3.58;;;2.67;;
44248;SDS011;29923;48.718;9.272;2023-08-30T10:28:48;2.95;;;2.60;;
44248;SDS011;29923;48.718;9.272;2023-08-30T10:31:13;4.53;;;2.30;;
44248;SDS011;29923;48.718;9.272;2023-08-30T10:34:39;3.22;;;2.55;;
44248;SDS011;29923;48.718;9.272;2023-08-30T10:36:38;5.30;;;1.98;;
44248;SDS011;29923;48.718;9.272;2023-08-30T10:39:03;3.30;;;2.17;;
44248;SDS011;29923;48.718;9.272;2023-08-30T10:41:36;2.80;;;2.00;;
44248;SDS011;29923;48.718;9.272;2023-08-30T10:44:01;2.17;;;1.90;;
44248;SDS011;29923;48.718;9.272;2023-08-30T10:46:31;4.38;;;1.58;;
44248;SDS011;29923;48.718;9.272;2023-08-30T10:49:08;2.00;;;1.80;;
44248;SDS011;29923;48.718;9.272;2023-08-30T10:51:35;4.47;;;2.10;;
44248;SDS011;29923;48.718;9.272;2023-08-30T10:54:09;3.80;;;1.98;;
44248;SDS011;29923;48.718;9.272;2023-08-30T10:56:45;3.65;;;1.90;;
44248;SDS011;29923;48.718;9.272;2023-08-30T10:59:21;3.15;;;2.08;;
44248;SDS011;29923;48.718;9.272;2023-08-30T11:01:47;2.40;;;1.85;;
44248;SDS011;29923;48.718;9.272;2023-08-30T11:04:14;4.07;;;2.03;;
44248;SDS011;29923;48.718;9.272;2023-08-30T11:06:39;2.88;;;1.80;;
44248;SDS011;29923;48.718;9.272;2023-08-30T11:09:06;2.28;;;1.95;;
44248;SDS011;29923;48.718;9.272;2023-08-30T11:11:32;2.63;;;1.83;;
44248;SDS011;29923;48.718;9.272;2023-08-30T11:14:08;3.38;;;2.20;;
44248;SDS011;29923;48.718;9.272;2023-08-30T11:16:34;3.63;;;1.80;;
44248;SDS011;29923;48.718;9.272;2023-08-30T11:19:03;3.17;;;1.90;;
44248;SDS011;29923;48.718;9.272;2023-08-30T11:21:47;3.30;;;2.00;;
44248;SDS011;29923;48.718;9.272;2023-08-30T11:24:13;3.03;;;1.70;;
44248;SDS011;29923;48.718;9.272;2023-08-30T11:26:40;5.75;;;2.20;;
44248;SDS011;29923;48.718;9.272;2023-08-30T11:29:06;2.83;;;1.85;;
44248;SDS011;29923;48.718;9.272;2023-08-30T11:31:32;2.25;;;1.80;;
44248;SDS011;29923;48.718;9.272;2023-08-30T11:33:58;4.28;;;2.10;;
44248;SDS011;29923;48.718;9.272;2023-08-30T11:36:26;4.55;;;2.00;;
44248;SDS011;29923;48.718;9.272;2023-08-30T11:38:52;4.68;;;1.60;;
44248;SDS011;29923;48.718;9.272;2023-08-30T11:41:21;2.83;;;1.90;;
44248;SDS011;29923;48.718;9.272;2023-08-30T11:43:47;1.80;;;1.63;;
44248;SDS011;29923;48.718;9.272;2023-08-30T11:46:13;2.78;;;1.70;;
44248;SDS011;29923;48.718;9.272;2023-08-30T11:48:39;2.13;;;1.40;;
44248;SDS011;29923;48.718;9.272;2023-08-30T11:51:05;3.25;;;1.70;;
44248;SDS011;29923;48.718;9.272;2023-08-30T11:53:31;3.13;;;1.65;;
44248;SDS011;29923;48.718;9.272;2023-08-30T11:55:56;2.72;;;1.50;;
44248;SDS011;29923;48.718;9.272;2023-08-30T11:58:22;4.40;;;1.95;;
44248;SDS011;29923;48.718;9.272;2023-08-30T12:00:49;2.85;;;1.70;;
44248;SDS011;29923;48.718;9.272;2023-08-30T12:03:15;3.50;;;1.80;;
44248;SDS011;29923;48.718;9.272;2023-08-30T12:05:44;1.65;;;1.50;;
44248;SDS011;29923;48.718;9.272;2023-08-30T12:08:17;4.03;;;1.60;;
44248;SDS011;29923;48.718;9.272;2023-08-30T12:10:44;5.93;;;1.88;;
44248;SDS011;29923;48.718;9.272;2023-08-30T12:13:19;1.95;;;1.80;;
44248;SDS011;29923;48.718;9.272;2023-08-30T12:15:48;2.72;;;1.63;;
44248;SDS011;29923;48.718;9.272;2023-08-30T12:18:13;5.88;;;1.60;;
44248;SDS011;29923;48.718;9.272;2023-08-30T12:20:38;6.15;;;1.85;;
44248;SDS011;29923;48.718;9.272;2023-08-30T12:23:04;1.20;;;1.10;;
44248;SDS011;29923;48.718;9.272;2023-08-30T12:25:29;1.60;;;1.10;;
44248;SDS011;29923;48.718;9.272;2023-08-30T12:27:57;1.98;;;1.25;;
44248;SDS011;29923;48.718;9.272;2023-08-30T12:30:22;3.03;;;1.67;;
44248;SDS011;29923;48.718;9.272;2023-08-30T12:32:48;10.38;;;2.30;;
44248;SDS011;29923;48.718;9.272;2023-08-30T12:35:13;3.58;;;1.83;;
44248;SDS011;29923;48.718;9.272;2023-08-30T12:37:39;2.38;;;1.58;;
44248;SDS011;29923;48.718;9.272;2023-08-30T12:40:05;2.22;;;1.60;;
44248;SDS011;29923;48.718;9.272;2023-08-30T12:42:31;3.45;;;1.77;;
44248;SDS011;29923;48.718;9.272;2023-08-30T12:44:57;3.53;;;2.00;;
44248;SDS011;29923;48.718;9.272;2023-08-30T12:47:22;3.00;;;1.70;;
44248;SDS011;29923;48.718;9.272;2023-08-30T12:49:48;2.92;;;1.45;;
44248;SDS011;29923;48.718;9.272;2023-08-30T12:52:13;1.83;;;1.70;;
44248;SDS011;29923;48.718;9.272;2023-08-30T12:54:38;6.28;;;1.60;;
44248;SDS011;29923;48.718;9.272;2023-08-30T12:57:04;4.20;;;1.52;;
44248;SDS011;29923;48.718;9.272;2023-08-30T12:59:29;1.88;;;1.58;;
44248;SDS011;29923;48.718;9.272;2023-08-30T13:01:54;1.52;;;1.20;;
44248;SDS011;29923;48.718;9.272;2023-08-30T13:04:20;1.50;;;1.30;;
44248;SDS011;29923;48.718;9.272;2023-08-30T13:06:45;3.10;;;1.52;;
44248;SDS011;29923;48.718;9.272;2023-08-30T13:09:10;3.58;;;1.70;;
44248;SDS011;29923;48.718;9.272;2023-08-30T13:11:36;2.10;;;1.50;;
44248;SDS011;29923;48.718;9.272;2023-08-30T13:14:01;3.83;;;1.90;;
44248;SDS011;29923;48.718;9.272;2023-08-30T13:16:26;2.05;;;1.73;;
44248;SDS011;29923;48.718;9.272;2023-08-30T13:18:52;1.92;;;1.52;;
44248;SDS011;29923;48.718;9.272;2023-08-30T13:21:17;2.58;;;1.75;;
44248;SDS011;29923;48.718;9.272;2023-08-30T13:23:42;2.65;;;1.70;;
44248;SDS011;29923;48.718;9.272;2023-08-30T13:26:08;5.25;;;1.90;;
44248;SDS011;29923;48.718;9.272;2023-08-30T13:28:33;3.85;;;1.80;;
44248;SDS011;29923;48.718;9.272;2023-08-30T13:30:59;2.90;;;1.80;;
44248;SDS011;29923;48.718;9.272;2023-08-30T13:33:25;2.22;;;1.73;;
44248;SDS011;29923;48.718;9.272;2023-08-30T13:35:50;3.00;;;1.65;;
44248;SDS011;29923;48.718;9.272;2023-08-30T13:38:16;5.35;;;1.77;;
44248;SDS011;29923;48.718;9.272;2023-08-30T13:40:42;2.00;;;1.60;;
44248;SDS011;29923;48.718;9.272;2023-08-30T13:43:07;3.83;;;1.95;;
44248;SDS011;29923;48.718;9.272;2023-08-30T13:45:33;4.22;;;1.60;;
44248;SDS011;29923;48.718;9.272;2023-08-30T13:47:58;2.72;;;1.83;;
44248;SDS011;29923;48.718;9.272;2023-08-30T13:50:24;5.60;;;2.00;;
44248;SDS011;29923;48.718;9.272;2023-08-30T13:52:51;8.30;;;2.75;;
44248;SDS011;29923;48.718;9.272;2023-08-30T13:55:17;7.20;;;2.05;;
44248;SDS011;29923;48.718;9.272;2023-08-30T13:57:42;5.32;;;1.38;;
44248;SDS011;29923;48.718;9.272;2023-08-30T14:00:08;2.22;;;1.25;;
44248;SDS011;29923;48.718;9.272;2023-08-30T14:02:34;4.72;;;1.70;;
44248;SDS011;29923;48.718;9.272;2023-08-30T14:05:00;3.83;;;1.48;;
44248;SDS011;29923;48.718;9.272;2023-08-30T14:07:25;3.10;;;1.90;;
44248;SDS011;29923;48.718;9.272;2023-08-30T14:09:51;8.27;;;2.33;;
44248;SDS011;29923;48.718;9.272;2023-08-30T14:12:17;3.58;;;2.30;;
44248;SDS011;29923;48.718;9.272;2023-08-30T14:14:42;5.72;;;1.83;;
44248;SDS011;29923;48.718;9.272;2023-08-30T14:17:07;8.05;;;2.70;;
44248;SDS011;29923;48.718;9.272;2023-08-30T14:19:36;3.92;;;2.10;;
44248;SDS011;29923;48.718;9.272;2023-08-30T14:22:01;26.83;;;6.20;;
44248;SDS011;29923;48.718;9.272;2023-08-30T14:24:28;19.58;;;5.38;;
44248;SDS011;29923;48.718;9.272;2023-08-30T14:26:54;15.35;;;4.30;;
44248;SDS011;29923;48.718;9.272;2023-08-30T14:29:20;5.28;;;2.13;;
44248;SDS011;29923;48.718;9.272;2023-08-30T14:31:46;4.15;;;2.40;;
44248;SDS011;29923;48.718;9.272;2023-08-30T14:34:11;5.80;;;2.13;;